Time;durP1;ratioP1;P1;durP2;ratioP2;P2;SDS_P1;SDS_P2;PMS_P1;PMS_P2;Temp;Humidity;BMP_temperature;BMP_pressure;BME280_temperature;BME280_humidity;BME280_pressure;Samples;Min_cycle;Max_cycle;Signal;HPM_P1;HPM_P2
2023/10/30 00:00:46;;;;;;;4.55;1.48;;;13.70;99.90;;;;;;4143160;28;20037;-65
2023/10/30 00:02:47;;;;;;;5.50;1.52;;;13.70;99.90;;;;;;4148025;28;20471;-64
2023/10/30 00:04:48;;;;;;;6.93;1.50;;;13.70;99.90;;;;;;4143285;28;20044;-65
2023/10/30 00:06:49;;;;;;;7.53;2.15;;;13.70;99.90;;;;;;4138491;28;20066;-65
2023/10/30 00:08:49;;;;;;;4.22;1.27;;;13.70;99.90;;;;;;4147338;28;20046;-64
2023/10/30 00:10:50;;;;;;;6.40;1.67;;;13.70;99.90;;;;;;4142612;28;20034;-64
2023/10/30 00:12:51;;;;;;;6.45;1.35;;;13.70;99.90;;;;;;4144137;28;20041;-65
2023/10/30 00:14:51;;;;;;;9.50;2.20;;;13.70;99.90;;;;;;4143511;28;20117;-65
2023/10/30 00:16:52;;;;;;;6.25;1.42;;;13.60;99.90;;;;;;4142590;28;20599;-64
2023/10/30 00:18:53;;;;;;;8.27;1.98;;;13.60;99.90;;;;;;4142317;28;20038;-64
2023/10/30 00:20:54;;;;;;;6.88;1.73;;;13.60;99.90;;;;;;4139362;28;20049;-64
2023/10/30 00:22:54;;;;;;;6.05;1.40;;;13.60;99.90;;;;;;4140915;28;20026;-65
2023/10/30 00:24:55;;;;;;;4.45;1.17;;;13.60;99.90;;;;;;4141032;28;20117;-65
2023/10/30 00:26:56;;;;;;;9.27;1.80;;;13.60;99.90;;;;;;4137460;28;20038;-65
2023/10/30 00:28:57;;;;;;;5.72;1.50;;;13.60;99.90;;;;;;4134918;28;20069;-65
2023/10/30 00:30:59;;;;;;;5.68;1.67;;;13.60;99.90;;;;;;4133174;28;21000;-65
2023/10/30 00:33:00;;;;;;;4.65;1.50;;;13.60;99.90;;;;;;4140911;28;20046;-64
2023/10/30 00:35:00;;;;;;;5.50;1.80;;;13.60;99.90;;;;;;4145815;28;20441;-65
2023/10/30 00:37:02;;;;;;;8.73;2.17;;;13.60;99.90;;;;;;4140612;28;20498;-64
2023/10/30 00:39:03;;;;;;;5.50;1.48;;;13.60;99.90;;;;;;4147430;28;20040;-64
2023/10/30 00:41:08;;;;;;;9.57;1.90;;;13.60;99.90;;;;;;4142058;28;20037;-64
2023/10/30 00:43:08;;;;;;;4.72;1.00;;;13.60;99.90;;;;;;4143517;28;20034;-64
2023/10/30 00:45:09;;;;;;;6.20;1.60;;;13.60;99.90;;;;;;4142628;28;20445;-65
2023/10/30 00:47:09;;;;;;;5.03;1.60;;;13.60;99.90;;;;;;4145678;28;20042;-65
2023/10/30 00:49:10;;;;;;;6.35;2.13;;;13.60;99.90;;;;;;4141989;28;20046;-65
2023/10/30 00:51:11;;;;;;;4.18;1.40;;;13.60;99.90;;;;;;4141240;28;20034;-64
2023/10/30 00:53:11;;;;;;;5.13;1.73;;;13.60;99.90;;;;;;4143133;28;20500;-65
2023/10/30 00:55:12;;;;;;;6.63;2.25;;;13.60;99.90;;;;;;4142880;28;20061;-65
2023/10/30 00:57:13;;;;;;;7.20;1.88;;;13.50;99.90;;;;;;4144032;28;20100;-64
2023/10/30 00:59:14;;;;;;;6.20;1.30;;;13.50;99.90;;;;;;4148166;28;20060;-64
2023/10/30 01:01:16;;;;;;;5.82;1.30;;;13.60;99.90;;;;;;4142221;28;20038;-65
2023/10/30 01:03:23;;;;;;;4.97;1.70;;;13.60;99.90;;;;;;4142731;28;20091;-64
2023/10/30 01:05:23;;;;;;;6.03;1.73;;;13.50;99.90;;;;;;4142359;28;20434;-74
2023/10/30 01:07:24;;;;;;;5.03;1.50;;;13.60;99.90;;;;;;4146005;28;20052;-74
2023/10/30 01:09:24;;;;;;;6.55;1.75;;;13.50;99.90;;;;;;4147489;28;20549;-70
2023/10/30 01:11:25;;;;;;;10.85;1.90;;;13.50;99.90;;;;;;4142135;28;20117;-72
2023/10/30 01:13:26;;;;;;;5.43;1.70;;;13.50;99.90;;;;;;4142711;28;20030;-73
2023/10/30 01:15:26;;;;;;;6.32;1.60;;;13.40;99.90;;;;;;4142191;28;20038;-72
2023/10/30 01:17:27;;;;;;;12.40;1.90;;;13.40;99.90;;;;;;4147445;28;20402;-73
2023/10/30 01:19:28;;;;;;;9.18;2.15;;;13.40;99.90;;;;;;4145040;28;20029;-73
2023/10/30 01:21:28;;;;;;;8.00;1.70;;;13.40;99.90;;;;;;4141457;28;20049;-74
2023/10/30 01:23:29;;;;;;;6.97;1.25;;;13.40;99.90;;;;;;4141026;28;20445;-73
2023/10/30 01:25:29;;;;;;;5.65;1.48;;;13.40;99.90;;;;;;4141791;28;20030;-74
2023/10/30 01:27:30;;;;;;;2.80;1.35;;;13.40;99.90;;;;;;4142876;28;20482;-73
2023/10/30 01:29:31;;;;;;;7.10;1.60;;;13.40;99.90;;;;;;4142260;28;20200;-73
2023/10/30 01:31:31;;;;;;;7.65;2.22;;;13.40;99.90;;;;;;4124383;28;20121;-73
2023/10/30 01:33:32;;;;;;;7.53;1.92;;;13.40;99.90;;;;;;4125992;28;20129;-74
2023/10/30 01:35:33;;;;;;;6.60;1.40;;;13.40;99.90;;;;;;4124315;28;20035;-74
2023/10/30 01:37:33;;;;;;;5.30;1.55;;;13.40;99.90;;;;;;4125082;28;20034;-74
2023/10/30 01:39:34;;;;;;;6.53;1.50;;;13.30;99.90;;;;;;4125486;28;20487;-73
2023/10/30 01:41:34;;;;;;;5.20;1.95;;;13.40;99.90;;;;;;4124595;28;20117;-73
2023/10/30 01:43:35;;;;;;;5.30;1.60;;;13.40;99.90;;;;;;4124573;28;20034;-73
2023/10/30 01:45:36;;;;;;;6.25;1.63;;;13.40;99.90;;;;;;4124746;28;20031;-74
2023/10/30 01:47:37;;;;;;;8.55;2.22;;;13.40;99.90;;;;;;4125072;28;20605;-73
2023/10/30 01:49:38;;;;;;;8.10;1.60;;;13.40;99.90;;;;;;4125220;28;20037;-74
2023/10/30 01:51:39;;;;;;;4.97;1.30;;;13.40;99.90;;;;;;4123516;28;20042;-74
2023/10/30 01:53:39;;;;;;;3.92;1.40;;;13.40;99.90;;;;;;4126295;28;20125;-73
2023/10/30 01:55:41;;;;;;;4.57;1.48;;;13.40;99.90;;;;;;4124477;28;20081;-73
2023/10/30 01:57:43;;;;;;;5.13;1.60;;;13.40;99.90;;;;;;4127022;28;20038;-73
2023/10/30 01:59:44;;;;;;;5.25;1.55;;;13.40;99.90;;;;;;4130459;28;20650;-74
2023/10/30 02:01:45;;;;;;;4.72;1.70;;;13.40;99.90;;;;;;4128750;28;20042;-74
2023/10/30 02:03:46;;;;;;;6.00;1.40;;;13.40;99.90;;;;;;4126478;28;20394;-74
2023/10/30 02:05:46;;;;;;;6.03;1.40;;;13.40;99.90;;;;;;4123384;28;20050;-74
2023/10/30 02:07:47;;;;;;;8.65;2.00;;;13.40;99.90;;;;;;4125062;28;20126;-74
2023/10/30 02:09:49;;;;;;;11.98;2.10;;;13.40;99.90;;;;;;4124867;28;20353;-74
2023/10/30 02:11:49;;;;;;;5.75;1.55;;;13.40;99.90;;;;;;4124586;28;20045;-74
2023/10/30 02:13:56;;;;;;;6.20;1.48;;;13.40;99.90;;;;;;4125614;28;20038;-74
2023/10/30 02:15:57;;;;;;;4.07;1.25;;;13.40;99.90;;;;;;4125364;28;20030;-67
2023/10/30 02:17:57;;;;;;;4.72;1.48;;;13.40;99.90;;;;;;4124521;28;20038;-68
2023/10/30 02:19:58;;;;;;;7.95;1.70;;;13.40;99.90;;;;;;4125073;28;20046;-68
2023/10/30 02:21:59;;;;;;;6.68;1.67;;;13.40;99.90;;;;;;4123281;28;20133;-68
2023/10/30 02:24:09;;;;;;;8.82;1.65;;;13.40;99.90;;;;;;4125043;28;20475;-67
2023/10/30 02:26:09;;;;;;;3.60;1.48;;;13.40;99.90;;;;;;4107422;28;20041;-67
2023/10/30 02:28:11;;;;;;;5.88;1.45;;;13.40;99.90;;;;;;4123623;28;20125;-67
2023/10/30 02:30:11;;;;;;;5.00;1.27;;;13.40;99.90;;;;;;4123648;28;20046;-67
2023/10/30 02:32:12;;;;;;;4.13;1.20;;;13.50;99.90;;;;;;4119423;28;20117;-67
2023/10/30 02:34:13;;;;;;;6.47;1.50;;;13.50;99.90;;;;;;4128770;28;20038;-67
2023/10/30 02:36:14;;;;;;;4.10;1.55;;;13.40;99.90;;;;;;4108812;28;20114;-67
2023/10/30 02:38:15;;;;;;;6.30;1.52;;;13.50;99.90;;;;;;4126873;28;20054;-67
2023/10/30 02:40:15;;;;;;;8.60;1.85;;;13.50;99.90;;;;;;4112023;28;20179;-67
2023/10/30 02:42:16;;;;;;;5.60;1.60;;;13.50;99.90;;;;;;4129343;28;20026;-67
2023/10/30 02:44:16;;;;;;;4.88;1.58;;;13.40;99.90;;;;;;4128637;28;20062;-67
2023/10/30 02:46:17;;;;;;;6.80;1.60;;;13.40;99.90;;;;;;4127548;28;20050;-67
2023/10/30 02:48:18;;;;;;;4.03;1.20;;;13.40;99.90;;;;;;4127057;28;20042;-67
2023/10/30 02:50:18;;;;;;;3.53;1.55;;;13.40;99.90;;;;;;4109135;28;20565;-67
2023/10/30 02:52:19;;;;;;;4.82;1.40;;;13.40;99.90;;;;;;4127649;28;20037;-67
2023/10/30 02:54:19;;;;;;;6.88;1.50;;;13.50;99.90;;;;;;4128301;28;20113;-67
2023/10/30 02:56:20;;;;;;;5.35;1.48;;;13.50;99.90;;;;;;4129560;28;20041;-67
2023/10/30 02:58:20;;;;;;;5.82;1.40;;;13.50;99.90;;;;;;4127194;28;20046;-67
2023/10/30 03:00:21;;;;;;;4.03;1.65;;;13.50;99.90;;;;;;4127219;28;20034;-67
2023/10/30 03:02:22;;;;;;;5.45;1.20;;;13.50;99.90;;;;;;4127094;28;20034;-67
2023/10/30 03:04:23;;;;;;;5.32;1.50;;;13.50;99.90;;;;;;4127829;28;20557;-67
2023/10/30 03:06:25;;;;;;;1.98;0.82;;;13.50;99.90;;;;;;4124371;28;20076;-67
2023/10/30 03:08:25;;;;;;;5.38;1.40;;;13.50;99.90;;;;;;4126214;28;20443;-69
2023/10/30 03:10:26;;;;;;;4.95;1.33;;;13.50;99.90;;;;;;4125707;28;20093;-67
2023/10/30 03:12:26;;;;;;;4.82;1.40;;;13.50;99.90;;;;;;4128072;28;20037;-68
2023/10/30 03:14:27;;;;;;;6.30;1.42;;;13.50;99.90;;;;;;4128382;28;20493;-67
2023/10/30 03:16:28;;;;;;;5.22;1.33;;;13.50;99.90;;;;;;4125817;28;20046;-68
2023/10/30 03:18:28;;;;;;;4.57;1.42;;;13.50;99.90;;;;;;4111055;28;20174;-67
2023/10/30 03:20:29;;;;;;;3.20;1.38;;;13.40;99.90;;;;;;4125902;28;20398;-67
2023/10/30 03:22:29;;;;;;;4.45;1.52;;;13.40;99.90;;;;;;4127405;28;20479;-67
2023/10/30 03:24:30;;;;;;;6.28;1.75;;;13.50;99.90;;;;;;4127607;28;20089;-66
2023/10/30 03:26:31;;;;;;;4.35;1.40;;;13.50;99.90;;;;;;4109427;28;20034;-80
2023/10/30 03:28:32;;;;;;;4.65;1.13;;;13.40;99.90;;;;;;4126191;28;20374;-80
2023/10/30 03:30:35;;;;;;;6.38;1.33;;;13.40;99.90;;;;;;4151031;28;20052;-80
2023/10/30 03:32:36;;;;;;;3.60;1.27;;;13.40;99.90;;;;;;4145609;28;20092;-80
2023/10/30 03:34:37;;;;;;;4.88;1.45;;;13.40;99.90;;;;;;4144767;28;20033;-80
2023/10/30 03:36:37;;;;;;;4.65;1.10;;;13.40;99.90;;;;;;4142381;28;20032;-80
2023/10/30 03:38:38;;;;;;;5.43;1.48;;;13.40;99.90;;;;;;4145643;28;20535;-80
2023/10/30 03:40:39;;;;;;;5.65;1.52;;;13.40;99.90;;;;;;4141277;28;20045;-80
2023/10/30 03:42:39;;;;;;;7.30;1.50;;;13.40;99.90;;;;;;4142483;28;20542;-80
2023/10/30 03:44:40;;;;;;;4.72;1.30;;;13.40;99.90;;;;;;4143661;28;20042;-80
2023/10/30 03:46:41;;;;;;;6.32;1.40;;;13.40;99.90;;;;;;4142864;28;20042;-80
2023/10/30 03:48:41;;;;;;;5.57;1.45;;;13.40;99.90;;;;;;4145191;28;20050;-80
2023/10/30 03:50:42;;;;;;;8.60;1.40;;;13.40;99.90;;;;;;4142913;28;20483;-81
2023/10/30 03:52:44;;;;;;;5.60;1.63;;;13.40;99.90;;;;;;4143406;28;20046;-81
2023/10/30 03:54:45;;;;;;;7.85;1.40;;;13.40;99.90;;;;;;4143473;28;20034;-80
2023/10/30 03:56:46;;;;;;;3.85;1.25;;;13.30;99.90;;;;;;4142465;28;20521;-80
2023/10/30 03:58:46;;;;;;;5.68;1.60;;;13.30;99.90;;;;;;4144843;28;20034;-80
2023/10/30 04:00:47;;;;;;;5.45;1.35;;;13.30;99.90;;;;;;4143025;28;20038;-80
2023/10/30 04:02:47;;;;;;;6.72;1.98;;;13.30;99.90;;;;;;4143995;28;20034;-80
2023/10/30 04:04:48;;;;;;;3.83;1.50;;;13.30;99.90;;;;;;4143204;28;20034;-79
2023/10/30 04:06:48;;;;;;;3.30;1.25;;;13.30;99.90;;;;;;4143102;28;20050;-80
2023/10/30 04:08:49;;;;;;;5.20;1.20;;;13.30;99.90;;;;;;4144162;28;20046;-80
2023/10/30 04:10:50;;;;;;;6.20;1.45;;;13.30;99.90;;;;;;4142700;28;20034;-81
2023/10/30 04:12:50;;;;;;;8.40;1.75;;;13.30;99.90;;;;;;4148215;28;20379;-80
2023/10/30 04:14:51;;;;;;;3.75;1.30;;;13.30;99.90;;;;;;4143280;28;20030;-80
2023/10/30 04:16:52;;;;;;;1.90;1.05;;;13.30;99.90;;;;;;4141960;28;20039;-79
2023/10/30 04:18:53;;;;;;;3.60;1.27;;;13.40;99.90;;;;;;4142103;28;20040;-80
2023/10/30 04:20:55;;;;;;;6.22;1.52;;;13.30;99.90;;;;;;4141433;28;20026;-80
2023/10/30 04:22:56;;;;;;;7.00;1.33;;;13.30;99.90;;;;;;4141951;28;20105;-77
2023/10/30 04:24:56;;;;;;;4.90;1.20;;;13.30;99.90;;;;;;4142127;28;20033;-78
2023/10/30 04:26:57;;;;;;;6.15;1.67;;;13.30;99.90;;;;;;4141041;28;20041;-78
2023/10/30 04:28:57;;;;;;;4.13;0.95;;;13.30;99.90;;;;;;4143179;28;20042;-79
2023/10/30 04:30:58;;;;;;;5.25;1.35;;;13.30;99.90;;;;;;4126295;28;20542;-80
2023/10/30 04:33:00;;;;;;;5.70;1.42;;;13.20;99.90;;;;;;4126699;28;20057;-77
2023/10/30 04:35:01;;;;;;;7.10;1.48;;;13.30;99.90;;;;;;4109837;28;20042;-64
2023/10/30 04:37:01;;;;;;;5.22;1.38;;;13.20;99.90;;;;;;4124845;28;20034;-64
2023/10/30 04:39:02;;;;;;;4.30;1.27;;;13.20;99.90;;;;;;4126285;28;20038;-64
2023/10/30 04:41:04;;;;;;;6.78;1.40;;;13.20;99.90;;;;;;4125397;28;20031;-65
2023/10/30 04:43:05;;;;;;;4.10;1.30;;;13.20;99.90;;;;;;4132431;28;20037;-65
2023/10/30 04:45:06;;;;;;;2.15;1.02;;;13.20;99.90;;;;;;4108931;28;20054;-65
2023/10/30 04:47:07;;;;;;;6.35;1.65;;;13.10;99.90;;;;;;4125277;28;20048;-64
2023/10/30 04:49:07;;;;;;;7.30;1.52;;;13.10;99.90;;;;;;4108822;28;20118;-65
2023/10/30 04:51:08;;;;;;;5.32;1.60;;;13.10;99.90;;;;;;4129779;28;20394;-65
2023/10/30 04:53:09;;;;;;;5.40;1.20;;;13.10;99.90;;;;;;4126694;28;20031;-64
2023/10/30 04:55:10;;;;;;;5.40;1.30;;;13.10;99.90;;;;;;4125804;28;20125;-65
2023/10/30 04:57:11;;;;;;;3.30;0.90;;;13.10;99.90;;;;;;4125927;28;20077;-64
2023/10/30 04:59:11;;;;;;;3.90;1.33;;;13.10;99.90;;;;;;4125808;28;20411;-64
2023/10/30 05:01:13;;;;;;;6.93;1.73;;;13.10;99.90;;;;;;4124863;28;20193;-64
2023/10/30 05:03:13;;;;;;;7.38;1.80;;;13.00;99.90;;;;;;4126019;28;20046;-64
2023/10/30 05:05:14;;;;;;;4.75;1.10;;;13.00;99.90;;;;;;4124951;28;20039;-64
2023/10/30 05:07:15;;;;;;;3.53;1.25;;;13.00;99.90;;;;;;4125170;28;20125;-64
2023/10/30 05:09:16;;;;;;;4.88;1.42;;;13.10;99.90;;;;;;4130545;28;21310;-64
2023/10/30 05:11:16;;;;;;;3.92;1.27;;;13.00;99.90;;;;;;4124005;28;20132;-64
2023/10/30 05:13:17;;;;;;;7.05;1.52;;;13.00;99.90;;;;;;4122243;28;20034;-64
2023/10/30 05:15:18;;;;;;;3.95;1.02;;;13.00;99.90;;;;;;4123470;28;20117;-65
2023/10/30 05:17:19;;;;;;;4.60;1.77;;;13.00;99.90;;;;;;4107259;28;20049;-64
2023/10/30 05:19:19;;;;;;;5.68;1.35;;;13.00;99.90;;;;;;4122912;28;20038;-65
2023/10/30 05:21:20;;;;;;;5.18;1.50;;;13.00;99.90;;;;;;4126011;28;20034;-64
2023/10/30 05:23:21;;;;;;;7.55;1.50;;;13.00;99.90;;;;;;4126254;28;20387;-65
2023/10/30 05:25:22;;;;;;;5.88;1.45;;;13.00;99.90;;;;;;4126053;28;20522;-64
2023/10/30 05:27:25;;;;;;;2.05;0.80;;;12.90;99.90;;;;;;4125297;28;20117;-64
2023/10/30 05:29:26;;;;;;;5.53;1.60;;;12.90;99.90;;;;;;4126525;28;20114;-64
2023/10/30 05:31:26;;;;;;;4.10;1.20;;;12.90;99.90;;;;;;4121240;28;20511;-66
2023/10/30 05:33:27;;;;;;;2.75;1.17;;;12.90;99.90;;;;;;4116161;28;20034;-65
2023/10/30 05:35:28;;;;;;;4.07;1.30;;;12.90;99.90;;;;;;4126634;28;20034;-65
2023/10/30 05:37:28;;;;;;;5.00;1.60;;;12.90;99.90;;;;;;4126454;28;20049;-64
2023/10/30 05:39:29;;;;;;;4.82;1.25;;;12.90;99.90;;;;;;4126497;28;20121;-65
2023/10/30 05:41:29;;;;;;;4.93;1.45;;;12.90;99.90;;;;;;4125239;28;20109;-66
2023/10/30 05:43:30;;;;;;;4.85;1.30;;;12.80;99.90;;;;;;4126544;28;20038;-65
2023/10/30 05:45:31;;;;;;;3.20;1.48;;;12.80;99.90;;;;;;4124978;28;20046;-73
2023/10/30 05:47:31;;;;;;;8.10;2.05;;;12.80;99.90;;;;;;4125255;28;20046;-73
2023/10/30 05:49:32;;;;;;;4.70;1.50;;;12.80;99.90;;;;;;4122583;28;20045;-72
2023/10/30 05:51:33;;;;;;;7.93;1.40;;;12.80;99.90;;;;;;4122486;28;20070;-74
2023/10/30 05:53:33;;;;;;;3.90;1.23;;;12.80;99.90;;;;;;4120076;28;20089;-74
2023/10/30 05:55:34;;;;;;;4.78;1.77;;;12.80;99.90;;;;;;4123044;28;20065;-76
2023/10/30 05:57:36;;;;;;;6.53;1.95;;;12.70;99.90;;;;;;4119670;28;20073;-76
2023/10/30 05:59:37;;;;;;;4.22;1.50;;;12.70;99.90;;;;;;4100965;28;20124;-78
2023/10/30 06:01:37;;;;;;;4.85;1.33;;;12.70;99.90;;;;;;4118075;28;20027;-76
2023/10/30 06:03:38;;;;;;;12.35;2.08;;;12.70;99.90;;;;;;4124701;28;20031;-76
2023/10/30 06:05:38;;;;;;;5.25;1.45;;;12.70;99.90;;;;;;4122496;28;20597;-77
2023/10/30 06:07:39;;;;;;;9.70;1.92;;;12.60;99.90;;;;;;4126811;28;20105;-77
2023/10/30 06:09:40;;;;;;;5.75;1.42;;;12.60;99.90;;;;;;4109764;28;20117;-77
2023/10/30 06:11:40;;;;;;;7.63;1.90;;;12.60;99.90;;;;;;4123648;28;20038;-77
2023/10/30 06:13:41;;;;;;;5.03;1.75;;;12.60;99.90;;;;;;4134688;28;20038;-77
2023/10/30 06:15:41;;;;;;;3.95;1.40;;;12.50;99.90;;;;;;4126214;28;20511;-77
2023/10/30 06:17:42;;;;;;;4.57;1.55;;;12.40;99.90;;;;;;4127453;28;20076;-77
2023/10/30 06:19:43;;;;;;;10.60;1.90;;;12.40;99.90;;;;;;4125040;28;20034;-77
2023/10/30 06:21:43;;;;;;;4.20;1.30;;;12.50;99.90;;;;;;4126173;28;20043;-77
2023/10/30 06:23:44;;;;;;;5.47;1.45;;;12.50;99.90;;;;;;4128244;28;20042;-78
2023/10/30 06:25:45;;;;;;;4.18;1.48;;;12.50;99.90;;;;;;4128557;28;20054;-77
2023/10/30 06:27:45;;;;;;;10.93;2.22;;;12.50;99.90;;;;;;4127890;28;20105;-76
2023/10/30 06:29:46;;;;;;;5.50;1.60;;;12.40;99.90;;;;;;4125910;28;20137;-77
2023/10/30 06:31:46;;;;;;;3.25;1.73;;;12.40;99.90;;;;;;4128583;28;20452;-77
2023/10/30 06:33:47;;;;;;;4.40;1.45;;;12.30;99.90;;;;;;4128767;28;20030;-77
2023/10/30 06:35:55;;;;;;;4.28;1.50;;;12.30;99.90;;;;;;4121824;28;20034;-77
2023/10/30 06:37:56;;;;;;;4.65;1.70;;;12.30;99.90;;;;;;4111277;28;20808;-81
2023/10/30 06:39:57;;;;;;;5.65;1.95;;;12.30;99.90;;;;;;4129574;28;20115;-73
2023/10/30 06:41:58;;;;;;;7.03;1.83;;;12.30;99.90;;;;;;4123585;28;20925;-75
2023/10/30 06:43:59;;;;;;;5.30;1.42;;;12.30;99.90;;;;;;4125288;28;20034;-75
2023/10/30 06:46:03;;;;;;;4.15;1.40;;;12.30;99.90;;;;;;4109314;28;20522;-76
2023/10/30 06:48:04;;;;;;;6.32;1.65;;;12.30;99.90;;;;;;4131505;28;20038;-73
2023/10/30 06:50:05;;;;;;;6.40;1.83;;;12.30;99.90;;;;;;4128794;28;20069;-76
2023/10/30 06:52:06;;;;;;;6.18;2.03;;;12.30;99.90;;;;;;4129032;28;20034;-76
2023/10/30 06:54:12;;;;;;;6.43;1.83;;;12.30;99.90;;;;;;4125280;28;20070;-76
2023/10/30 06:56:13;;;;;;;4.38;1.30;;;12.30;99.90;;;;;;4128604;28;20041;-76
2023/10/30 06:58:13;;;;;;;4.30;1.60;;;12.30;99.90;;;;;;4130551;28;20463;-76
2023/10/30 07:00:14;;;;;;;5.30;1.73;;;12.30;99.90;;;;;;4132327;28;20053;-76
2023/10/30 07:02:15;;;;;;;6.40;1.92;;;12.20;99.90;;;;;;4133273;28;20043;-76
2023/10/30 07:04:16;;;;;;;7.63;2.33;;;12.30;99.90;;;;;;4134976;28;20041;-75
2023/10/30 07:06:17;;;;;;;4.28;1.35;;;12.30;99.90;;;;;;4137663;28;20084;-68
2023/10/30 07:08:18;;;;;;;3.47;1.23;;;12.20;99.90;;;;;;4131034;28;20059;-69
2023/10/30 07:10:18;;;;;;;4.60;1.45;;;12.30;99.90;;;;;;4129697;28;20422;-69
2023/10/30 07:12:19;;;;;;;7.03;1.80;;;12.30;99.90;;;;;;4129243;28;20035;-68
2023/10/30 07:14:19;;;;;;;4.78;1.77;;;12.30;99.90;;;;;;4109611;28;20034;-69
2023/10/30 07:16:20;;;;;;;7.88;1.85;;;12.30;99.90;;;;;;4108409;28;20440;-71
2023/10/30 07:18:22;;;;;;;4.80;1.70;;;12.30;99.90;;;;;;4123766;28;20053;-71
2023/10/30 07:20:23;;;;;;;3.10;1.40;;;12.30;99.90;;;;;;4124192;28;20042;-71
2023/10/30 07:22:24;;;;;;;4.28;1.63;;;12.40;99.90;;;;;;4122508;28;21099;-71
2023/10/30 07:24:24;;;;;;;6.07;2.03;;;12.40;99.90;;;;;;4126220;28;20121;-71
2023/10/30 07:26:25;;;;;;;5.93;1.55;;;12.50;99.90;;;;;;4126516;28;20042;-71
2023/10/30 07:28:25;;;;;;;8.02;2.10;;;12.60;99.90;;;;;;4125100;28;20065;-71
2023/10/30 07:30:26;;;;;;;6.63;2.00;;;12.70;99.90;;;;;;4122887;28;20054;-72
2023/10/30 07:32:27;;;;;;;8.55;1.67;;;12.90;99.90;;;;;;4102682;28;20046;-72
2023/10/30 07:34:28;;;;;;;7.18;2.00;;;13.00;99.90;;;;;;4125455;28;20089;-71
2023/10/30 07:36:29;;;;;;;6.60;2.08;;;13.10;99.90;;;;;;4126383;28;20404;-72
2023/10/30 07:38:30;;;;;;;5.47;1.63;;;13.20;99.90;;;;;;4123407;28;20105;-71
2023/10/30 07:40:30;;;;;;;7.30;1.83;;;13.40;99.90;;;;;;4123271;28;20031;-71
2023/10/30 07:42:31;;;;;;;6.25;1.48;;;13.60;99.90;;;;;;4106872;28;20661;-72
2023/10/30 07:44:32;;;;;;;6.10;2.08;;;13.90;99.90;;;;;;4127081;28;20053;-72
2023/10/30 07:46:34;;;;;;;6.68;1.75;;;14.00;99.90;;;;;;4123991;28;20034;-72
2023/10/30 07:48:34;;;;;;;4.47;1.60;;;14.30;99.90;;;;;;4123906;28;20668;-72
2023/10/30 07:50:38;;;;;;;5.20;1.67;;;14.60;99.90;;;;;;4122853;28;20041;-71
2023/10/30 07:52:39;;;;;;;4.63;1.73;;;14.90;99.90;;;;;;4123680;28;20617;-72
2023/10/30 07:54:40;;;;;;;5.47;1.63;;;15.00;99.90;;;;;;4123222;28;20041;-72
2023/10/30 07:56:42;;;;;;;6.20;1.75;;;15.00;99.90;;;;;;4125599;28;20122;-72
2023/10/30 07:58:42;;;;;;;5.78;1.67;;;15.10;99.90;;;;;;4120856;28;20058;-71
2023/10/30 08:00:43;;;;;;;5.80;1.83;;;15.20;99.90;;;;;;4121235;28;20053;-73
2023/10/30 08:02:46;;;;;;;6.00;1.95;;;15.20;99.90;;;;;;4124384;28;20537;-73
2023/10/30 08:04:46;;;;;;;5.32;1.63;;;15.20;99.90;;;;;;4123137;28;20077;-73
2023/10/30 08:06:47;;;;;;;4.60;1.60;;;15.30;99.90;;;;;;4120495;28;20446;-72
2023/10/30 08:08:48;;;;;;;3.50;1.42;;;15.30;99.90;;;;;;4123198;28;20078;-72
2023/10/30 08:10:51;;;;;;;4.68;1.15;;;15.30;99.90;;;;;;4104916;28;20041;-72
2023/10/30 08:12:52;;;;;;;4.55;1.65;;;15.50;99.90;;;;;;4123806;28;20052;-72
2023/10/30 08:14:53;;;;;;;4.47;1.30;;;15.40;99.90;;;;;;4123645;28;20064;-72
2023/10/30 08:16:54;;;;;;;5.18;1.70;;;15.40;99.90;;;;;;4123044;28;20045;-72
2023/10/30 08:18:55;;;;;;;5.65;1.55;;;15.40;99.90;;;;;;4123741;28;20418;-72
2023/10/30 08:20:58;;;;;;;9.73;1.95;;;15.40;99.90;;;;;;4123227;28;20053;-72
2023/10/30 08:22:58;;;;;;;7.78;1.85;;;15.40;99.90;;;;;;4122654;28;20042;-71
2023/10/30 08:24:59;;;;;;;3.72;1.70;;;15.40;99.90;;;;;;4124739;28;20053;-72
2023/10/30 08:26:59;;;;;;;5.35;1.70;;;15.30;99.90;;;;;;4122437;28;20034;-73
2023/10/30 08:29:00;;;;;;;3.90;1.40;;;15.30;99.90;;;;;;4123108;28;20085;-71
2023/10/30 08:31:01;;;;;;;7.32;1.63;;;15.30;99.90;;;;;;4121760;28;20502;-72
2023/10/30 08:33:03;;;;;;;6.93;1.70;;;15.20;99.90;;;;;;4122574;28;20040;-72
2023/10/30 08:35:04;;;;;;;6.72;1.92;;;15.20;99.90;;;;;;4125147;28;20038;-77
2023/10/30 08:37:05;;;;;;;8.23;1.70;;;15.20;99.90;;;;;;4122836;28;20041;-76
2023/10/30 08:39:06;;;;;;;6.63;1.52;;;15.20;99.90;;;;;;4124313;28;20039;-77
2023/10/30 08:41:14;;;;;;;4.57;1.60;;;15.10;99.90;;;;;;4123781;28;20054;-78
2023/10/30 08:43:15;;;;;;;3.22;1.20;;;15.00;99.90;;;;;;4123949;28;20038;-77
2023/10/30 08:45:16;;;;;;;8.98;2.42;;;15.00;99.90;;;;;;4119287;28;20038;-77
2023/10/30 08:47:16;;;;;;;8.48;1.73;;;14.90;99.90;;;;;;4124683;28;20037;-77
2023/10/30 08:49:17;;;;;;;7.40;1.88;;;14.90;99.90;;;;;;4122436;28;20039;-77
2023/10/30 08:51:17;;;;;;;4.00;1.30;;;14.90;99.90;;;;;;4120202;28;20109;-77
2023/10/30 08:53:18;;;;;;;4.97;1.73;;;14.80;99.90;;;;;;4123934;28;20092;-76
2023/10/30 08:55:19;;;;;;;7.20;1.80;;;14.80;99.90;;;;;;4122100;28;20049;-77
2023/10/30 08:57:20;;;;;;;5.22;1.45;;;14.70;99.90;;;;;;4124243;28;20096;-76
2023/10/30 08:59:20;;;;;;;6.32;1.85;;;14.60;99.90;;;;;;4123121;28;20053;-77
2023/10/30 09:01:21;;;;;;;7.70;1.92;;;14.60;99.90;;;;;;4120341;28;20034;-77
2023/10/30 09:03:21;;;;;;;6.88;1.95;;;14.50;99.90;;;;;;4100328;28;20141;-77
2023/10/30 09:05:22;;;;;;;6.63;1.75;;;14.50;99.90;;;;;;4123961;28;20046;-76
2023/10/30 09:07:22;;;;;;;5.35;1.80;;;14.40;99.90;;;;;;4123958;28;20046;-76
2023/10/30 09:09:23;;;;;;;8.25;1.73;;;14.40;99.90;;;;;;4124318;28;20054;-77
2023/10/30 09:11:24;;;;;;;4.85;1.52;;;14.40;99.90;;;;;;4123734;28;20053;-77
2023/10/30 09:13:24;;;;;;;8.38;1.65;;;14.40;99.90;;;;;;4122200;28;20042;-77
2023/10/30 09:15:25;;;;;;;5.10;1.42;;;14.40;99.90;;;;;;4122141;28;20062;-77
2023/10/30 09:17:25;;;;;;;5.68;1.90;;;14.40;99.90;;;;;;4124651;28;20499;-78
2023/10/30 09:19:27;;;;;;;9.00;1.88;;;14.30;99.90;;;;;;4123947;28;20781;-76
2023/10/30 09:21:27;;;;;;;4.65;1.40;;;14.30;99.90;;;;;;4122835;28;20043;-77
2023/10/30 09:23:28;;;;;;;7.10;1.90;;;14.40;99.90;;;;;;4123837;28;20121;-77
2023/10/30 09:25:29;;;;;;;7.13;2.60;;;14.40;99.90;;;;;;4122322;28;20053;-77
2023/10/30 09:27:29;;;;;;;7.75;1.80;;;14.40;99.90;;;;;;4123458;28;20035;-78
2023/10/30 09:29:30;;;;;;;6.90;1.88;;;14.40;99.90;;;;;;4126376;28;20045;-77
2023/10/30 09:31:31;;;;;;;4.72;1.67;;;14.40;99.90;;;;;;4138382;28;20033;-77
2023/10/30 09:33:32;;;;;;;8.57;2.20;;;14.40;99.90;;;;;;4140280;28;20113;-76
2023/10/30 09:35:34;;;;;;;8.73;2.28;;;14.40;99.90;;;;;;4138974;28;20045;-77
2023/10/30 09:37:34;;;;;;;5.20;1.77;;;14.40;99.90;;;;;;4139208;28;20049;-78
2023/10/30 09:39:35;;;;;;;6.47;1.92;;;14.50;99.90;;;;;;4140346;28;20038;-76
2023/10/30 09:41:40;;;;;;;5.82;1.70;;;14.50;99.90;;;;;;4138711;28;20445;-76
2023/10/30 09:43:41;;;;;;;5.32;1.52;;;14.50;99.90;;;;;;4138348;28;20121;-76
2023/10/30 09:45:45;;;;;;;3.95;1.42;;;14.50;99.90;;;;;;4138395;28;20144;-71
2023/10/30 09:47:46;;;;;;;4.88;1.80;;;14.50;99.90;;;;;;4139595;28;20054;-71
2023/10/30 09:49:48;;;;;;;5.63;1.60;;;14.60;99.90;;;;;;4136422;28;20046;-72
2023/10/30 09:51:51;;;;;;;4.93;1.60;;;14.60;99.90;;;;;;4136647;28;20038;-72
2023/10/30 09:53:55;;;;;;;4.80;1.50;;;14.70;99.90;;;;;;4138156;28;20042;-71
2023/10/30 09:55:56;;;;;;;2.83;1.40;;;14.70;99.90;;;;;;4138944;28;20065;-72
2023/10/30 09:57:57;;;;;;;4.53;1.13;;;14.70;99.90;;;;;;4140277;28;20046;-72
2023/10/30 09:59:57;;;;;;;5.63;1.45;;;14.70;99.90;;;;;;4140960;28;20030;-72
2023/10/30 10:01:59;;;;;;;3.50;1.50;;;14.70;99.90;;;;;;4138006;28;20084;-72
2023/10/30 10:03:59;;;;;;;3.75;1.13;;;14.80;99.90;;;;;;4154574;28;20592;-71
2023/10/30 10:06:00;;;;;;;5.00;1.30;;;14.80;99.90;;;;;;4141049;28;20049;-72
2023/10/30 10:08:01;;;;;;;3.80;1.30;;;14.80;99.90;;;;;;4140131;28;21168;-71
2023/10/30 10:10:06;;;;;;;6.18;1.25;;;14.80;99.90;;;;;;4139981;28;20046;-71
2023/10/30 10:12:29;;;;;;;5.43;1.25;;;14.90;99.90;;;;;;4137647;28;20084;-71
2023/10/30 10:14:30;;;;;;;5.22;1.65;;;14.90;99.90;;;;;;4153355;28;20144;-71
2023/10/30 10:16:31;;;;;;;6.22;1.55;;;14.90;99.90;;;;;;4137688;28;20034;-72
2023/10/30 10:18:34;;;;;;;5.80;1.80;;;14.90;99.90;;;;;;4141610;28;20046;-72
2023/10/30 10:20:35;;;;;;;3.75;1.23;;;14.90;99.90;;;;;;4138316;28;20046;-71
2023/10/30 10:22:35;;;;;;;4.00;1.80;;;14.90;99.90;;;;;;4138096;28;20121;-72
2023/10/30 10:24:37;;;;;;;4.82;1.83;;;15.00;99.90;;;;;;4137873;28;20026;-71
2023/10/30 10:26:40;;;;;;;5.03;1.55;;;15.00;99.90;;;;;;4138241;28;20113;-70
2023/10/30 10:28:43;;;;;;;5.20;1.63;;;15.00;99.90;;;;;;4139998;28;20038;-71